Brownstown, PA (17508)

5:41 PM EDT on July 30, 2016 (GMT -0400)
Lititz Run, near Millport Conservancy | | Change Station

Elev 410 ft 40.14 °N, 76.26 °W | Updated 1 minute ago

Light Rain
Light Rain Mist
71.2 °F
Feels Like 71.2 °F
N
1.0
Wind Variable Wind from NNE
Gusts 5.0 mph

Today
High -- | Low -- °F
--% Chance of Precip.
Yesterday
High -- | Low -- °F
Precip. -- in
Pressure 29.97 in
Visibility 3.0 miles
Clouds Scattered Clouds 3300 ft
Mostly Cloudy 7000 ft
Overcast 9500 ft
Dew Point 71 °F
Humidity 100%
Rainfall 1.19 in
Snow Depth Not available.
6:01 AM 8:20 PM
Waning Crescent, 11% visible
SPECI KLNS 302109Z 06006KT 3SM -RA BR SCT033 BKN070 OVC095 21/21 A2997 RMK AO2 LTG DSNT SW-N P0004 T02110211
Pressure 29.97 in
Visibility 3.0 miles
Clouds Scattered Clouds 3300 ft
Mostly Cloudy 7000 ft
Overcast 9500 ft
Dew Point 71 °F
Humidity 100%
Rainfall 1.19 in
Snow Depth Not available.
6:01 AM 8:20 PM
Waning Crescent, 11% visible
SPECI KLNS 302109Z 06006KT 3SM -RA BR SCT033 BKN070 OVC095 21/21 A2997 RMK AO2 LTG DSNT SW-N P0004 T02110211

10-Day Weather Forecast

Almanac

Astronomy

Jul. 30, 2016 Rise Set
Actual Time
Civil Twilight
Nautical Twilight
Astronomical Twilight
Moon
Length of Visible Light
Length of Day
Tomorrow will be .
, % of the Moon is Illuminated

Today's Extremes

State Highs State Lows

Community

WunderPhotos

Upload Photos

1,928,657 photos uploaded!

WunderBlog® & News

Nearby

Air Quality

  Air Quality AQ Index Pollutant
Not available.

Snow Depth

Station Depth Elevation

Earthquake Activity

City Distance Mag. Time & Date
Minimum magnitude displayed is 2.5.

Coastal Water Temperatures

Place Temperature

Stations

Nearby Weather Stations

Station Location Temp. Windchill Dew Point Humidity Wind Precip. Elev Updated Type
                   

Watches & Warnings

There are currently no watches in effect.